createdAt,value
2018-07-31T00:00:53.895Z,23.92
2018-07-31T00:01:53.881Z,23.98
2018-07-31T00:02:54.144Z,23.94
2018-07-31T00:03:54.136Z,23.89
2018-07-31T00:04:53.877Z,23.94
2018-07-31T00:05:53.593Z,23.9
2018-07-31T00:06:53.856Z,23.77
2018-07-31T00:07:53.841Z,23.86
2018-07-31T00:08:54.099Z,23.82
2018-07-31T00:09:53.831Z,23.76
2018-07-31T00:10:53.827Z,23.83
2018-07-31T00:11:54.076Z,23.83
2018-07-31T00:12:53.543Z,23.8
2018-07-31T00:13:54.070Z,23.85
2018-07-31T00:14:53.796Z,23.75
2018-07-31T00:15:54.047Z,23.76
2018-07-31T00:16:53.782Z,23.82
2018-07-31T00:17:53.506Z,23.79
2018-07-31T00:18:53.764Z,23.8
2018-07-31T00:19:54.231Z,23.76
2018-07-31T00:20:54.007Z,23.77
2018-07-31T00:21:53.486Z,23.8
2018-07-31T00:22:53.999Z,23.77
2018-07-31T00:23:53.997Z,23.72
2018-07-31T00:24:53.979Z,23.79
2018-07-31T00:25:53.710Z,23.77
2018-07-31T00:26:53.973Z,23.8
2018-07-31T00:27:53.695Z,23.77
2018-07-31T00:28:53.689Z,23.82
2018-07-31T00:29:53.417Z,23.64
2018-07-31T00:30:53.409Z,23.67
2018-07-31T00:31:53.407Z,23.65
2018-07-31T00:32:53.929Z,23.65
2018-07-31T00:33:53.392Z,23.65
2018-07-31T00:34:53.380Z,23.62
2018-07-31T00:35:53.372Z,23.61
2018-07-31T00:36:53.633Z,23.55
2018-07-31T00:37:53.621Z,23.57
2018-07-31T00:38:53.897Z,23.47
2018-07-31T00:39:53.609Z,23.45
2018-07-31T00:40:53.333Z,23.4
2018-07-31T00:41:53.865Z,23.4
2018-07-31T00:42:53.844Z,23.38
2018-07-31T00:43:53.579Z,23.39
2018-07-31T00:44:53.565Z,23.38
2018-07-31T00:45:53.861Z,23.4
2018-07-31T00:46:53.818Z,23.43
2018-07-31T00:47:53.812Z,23.47
2018-07-31T00:48:53.273Z,23.38
2018-07-31T00:49:53.537Z,23.42
2018-07-31T00:50:53.788Z,23.38
2018-07-31T00:51:53.780Z,23.38
2018-07-31T00:52:53.241Z,23.42
2018-07-31T00:53:53.765Z,23.53
2018-07-31T00:54:53.227Z,23.45
2018-07-31T00:55:53.752Z,23.45
2018-07-31T00:56:53.742Z,23.46
2018-07-31T00:57:53.468Z,23.42
2018-07-31T00:58:53.467Z,23.38
2018-07-31T00:59:53.453Z,23.43
2018-07-31T01:00:53.709Z,23.42
2018-07-31T01:01:53.702Z,23.35
2018-07-31T01:02:53.173Z,23.35
2018-07-31T01:03:53.690Z,23.43
2018-07-31T01:04:53.153Z,23.4
2018-07-31T01:05:53.670Z,23.31
2018-07-31T01:06:53.398Z,23.23
2018-07-31T01:07:53.391Z,23.24
2018-07-31T01:08:53.387Z,23.26
2018-07-31T01:09:53.643Z,23.27
2018-07-31T01:10:53.441Z,23.26
2018-07-31T01:11:53.360Z,23.24
2018-07-31T01:12:53.358Z,23.15
2018-07-31T01:13:53.355Z,23.19
2018-07-31T01:14:53.338Z,23.22
2018-07-31T01:15:53.332Z,23.14
2018-07-31T01:16:53.330Z,23.08
2018-07-31T01:17:53.052Z,23.09
2018-07-31T01:18:53.578Z,23.15
2018-07-31T01:19:53.032Z,23.09
2018-07-31T01:20:53.296Z,23.09
2018-07-31T01:21:53.279Z,23.12
2018-07-31T01:22:53.011Z,23.12
2018-07-31T01:23:53.534Z,23.14
2018-07-31T01:24:53.517Z,23.08
2018-07-31T01:25:53.253Z,23.14
2018-07-31T01:26:52.985Z,23.2
2018-07-31T01:27:53.244Z,23.11
2018-07-31T01:28:53.488Z,23.09
2018-07-31T01:29:53.485Z,23.11
2018-07-31T01:30:53.471Z,23.08
2018-07-31T01:31:53.215Z,23.09
2018-07-31T01:32:53.199Z,23.11
2018-07-31T01:33:53.448Z,23.12
2018-07-31T01:34:53.449Z,23.12
2018-07-31T01:35:53.435Z,23.11
2018-07-31T01:36:52.903Z,23.07
2018-07-31T01:37:53.151Z,22.99
2018-07-31T01:38:53.416Z,23.02
2018-07-31T01:39:52.885Z,22.94
2018-07-31T01:40:53.398Z,23.01
2018-07-31T01:41:53.387Z,22.97
2018-07-31T01:42:53.131Z,22.96
2018-07-31T01:43:53.107Z,22.97
2018-07-31T01:44:53.362Z,22.93
2018-07-31T01:45:53.262Z,22.97
2018-07-31T01:46:52.820Z,22.82
2018-07-31T01:47:53.084Z,22.8
2018-07-31T01:48:53.066Z,22.82
2018-07-31T01:49:53.332Z,22.77
2018-07-31T01:50:52.795Z,22.83
2018-07-31T01:51:53.061Z,22.74
2018-07-31T01:52:52.768Z,22.74
2018-07-31T01:53:53.044Z,22.75
2018-07-31T01:54:53.027Z,22.68
2018-07-31T01:55:53.289Z,22.62
2018-07-31T01:56:52.740Z,22.64
2018-07-31T01:57:53.018Z,22.59
2018-07-31T01:58:52.719Z,22.64
2018-07-31T01:59:53.244Z,22.54
2018-07-31T02:00:52.702Z,22.52
2018-07-31T02:01:52.969Z,22.49
2018-07-31T02:02:52.951Z,22.49
2018-07-31T02:03:52.689Z,22.47
2018-07-31T02:04:52.932Z,22.53
2018-07-31T02:05:52.962Z,22.47
2018-07-31T02:06:52.930Z,22.43
2018-07-31T02:07:52.928Z,22.53
2018-07-31T02:08:52.908Z,22.39
2018-07-31T02:09:53.189Z,22.35
2018-07-31T02:10:53.159Z,22.32
2018-07-31T02:11:52.628Z,22.32
2018-07-31T02:12:52.875Z,22.32
2018-07-31T02:13:52.892Z,22.35
2018-07-31T02:14:52.863Z,22.32
2018-07-31T02:15:52.844Z,22.34
2018-07-31T02:16:52.582Z,22.32
2018-07-31T02:17:52.827Z,22.32
2018-07-31T02:18:52.820Z,22.32
2018-07-31T02:19:53.288Z,22.35
2018-07-31T02:20:52.810Z,22.32
2018-07-31T02:21:52.794Z,22.28
2018-07-31T02:22:53.065Z,22.22
2018-07-31T02:23:52.776Z,22.25
2018-07-31T02:24:53.041Z,22.23
2018-07-31T02:25:52.765Z,22.25
2018-07-31T02:26:53.015Z,22.29
2018-07-31T02:27:52.532Z,22.27
2018-07-31T02:28:53.006Z,22.27
2018-07-31T02:29:52.734Z,22.17
2018-07-31T02:30:53.002Z,22.14
2018-07-31T02:31:52.725Z,22.17
2018-07-31T02:32:52.708Z,22.17
2018-07-31T02:33:52.710Z,22.2
2018-07-31T02:34:52.691Z,22.19
2018-07-31T02:35:52.417Z,22.19
2018-07-31T02:36:52.685Z,22.13
2018-07-31T02:37:52.399Z,22.04
2018-07-31T02:38:52.649Z,22.04
2018-07-31T02:39:52.926Z,22.02
2018-07-31T02:40:52.647Z,22.09
2018-07-31T02:41:52.901Z,22.1
2018-07-31T02:42:52.365Z,22.13
2018-07-31T02:43:52.639Z,22.09
2018-07-31T02:44:52.889Z,22.09
2018-07-31T02:45:52.860Z,22.09
2018-07-31T02:46:53.007Z,22.02
2018-07-31T02:47:52.840Z,22.09
2018-07-31T02:48:52.571Z,22.04
2018-07-31T02:49:52.293Z,22.06
2018-07-31T02:50:52.287Z,21.98
2018-07-31T02:51:52.801Z,21.98
2018-07-31T02:52:52.553Z,21.99
2018-07-31T02:53:52.529Z,22.01
2018-07-31T02:54:52.800Z,21.98
2018-07-31T02:55:52.513Z,21.94
2018-07-31T02:56:52.242Z,22.01
2018-07-31T02:57:52.489Z,21.99
2018-07-31T02:58:52.494Z,21.92
2018-07-31T02:59:52.481Z,21.99
2018-07-31T03:00:52.470Z,21.88
2018-07-31T03:01:52.732Z,21.99
2018-07-31T03:02:52.447Z,21.98
2018-07-31T03:03:52.180Z,21.98
2018-07-31T03:04:52.430Z,21.97
2018-07-31T03:05:52.424Z,21.85
2018-07-31T03:06:52.682Z,21.95
2018-07-31T03:07:52.406Z,21.88
2018-07-31T03:08:52.133Z,21.91
2018-07-31T03:09:52.401Z,21.85
2018-07-31T03:10:52.657Z,21.78
2018-07-31T03:11:52.383Z,21.85
2018-07-31T03:12:52.360Z,21.91
2018-07-31T03:13:52.369Z,21.83
2018-07-31T03:14:52.352Z,21.85
2018-07-31T03:15:52.335Z,21.81
2018-07-31T03:16:52.337Z,21.82
2018-07-31T03:17:52.059Z,21.76
2018-07-31T03:18:52.579Z,21.88
2018-07-31T03:19:52.575Z,21.71
2018-07-31T03:20:52.558Z,21.74
2018-07-31T03:21:52.277Z,21.71
2018-07-31T03:22:52.290Z,21.75
2018-07-31T03:23:52.539Z,21.72
2018-07-31T03:24:52.514Z,21.75
2018-07-31T03:25:52.527Z,21.81
2018-07-31T03:26:52.509Z,21.67
2018-07-31T03:27:51.969Z,21.64
2018-07-31T03:28:51.958Z,21.63
2018-07-31T03:29:52.521Z,21.71
2018-07-31T03:30:52.220Z,21.63
2018-07-31T03:31:52.476Z,21.64
2018-07-31T03:32:52.462Z,21.63
2018-07-31T03:33:52.187Z,21.56
2018-07-31T03:34:52.433Z,21.6
2018-07-31T03:35:52.434Z,21.63
2018-07-31T03:36:52.153Z,21.6
2018-07-31T03:37:52.148Z,21.57
2018-07-31T03:38:52.136Z,21.53
2018-07-31T03:39:52.123Z,21.6
2018-07-31T03:40:52.123Z,21.63
2018-07-31T03:41:52.108Z,21.54
2018-07-31T03:42:52.370Z,21.54
2018-07-31T03:43:51.825Z,21.57
2018-07-31T03:44:52.338Z,21.54
2018-07-31T03:45:52.068Z,21.54
2018-07-31T03:46:52.071Z,21.57
2018-07-31T03:47:52.317Z,21.56
2018-07-31T03:48:52.314Z,21.51
2018-07-31T03:49:52.035Z,21.57
2018-07-31T03:50:52.297Z,21.56
2018-07-31T03:51:52.022Z,21.48
2018-07-31T03:52:51.747Z,21.51
2018-07-31T03:53:52.263Z,21.5
2018-07-31T03:54:51.990Z,21.46
2018-07-31T03:55:51.983Z,21.56
2018-07-31T03:56:51.977Z,21.5
2018-07-31T03:57:51.971Z,21.46
2018-07-31T03:58:52.228Z,21.57
2018-07-31T03:59:51.957Z,21.57
2018-07-31T04:00:51.679Z,21.45
2018-07-31T04:01:51.666Z,21.6
2018-07-31T04:02:52.185Z,21.45
2018-07-31T04:03:51.912Z,21.6
2018-07-31T04:04:51.905Z,21.56
2018-07-31T04:05:51.894Z,21.54
2018-07-31T04:06:52.148Z,21.53
2018-07-31T04:07:52.139Z,21.56
2018-07-31T04:08:51.868Z,21.53
2018-07-31T04:09:51.596Z,21.63
2018-07-31T04:10:52.110Z,21.53
2018-07-31T04:11:51.840Z,21.59
2018-07-31T04:12:51.829Z,21.57
2018-07-31T04:13:51.558Z,21.56
2018-07-31T04:14:52.078Z,21.54
2018-07-31T04:15:51.543Z,21.59
2018-07-31T04:16:51.888Z,21.56
2018-07-31T04:17:52.061Z,21.54
2018-07-31T04:18:51.775Z,21.53
2018-07-31T04:19:52.285Z,21.53
2018-07-31T04:20:52.018Z,21.51
2018-07-31T04:21:51.750Z,21.56
2018-07-31T04:22:51.741Z,21.53
2018-07-31T04:23:51.727Z,21.54
2018-07-31T04:24:52.086Z,21.53
2018-07-31T04:25:51.452Z,21.51
2018-07-31T04:26:51.969Z,21.48
2018-07-31T04:27:51.697Z,21.45
2018-07-31T04:28:51.947Z,21.48
2018-07-31T04:29:51.946Z,21.53
2018-07-31T04:30:51.676Z,21.5
2018-07-31T04:31:51.660Z,21.5
2018-07-31T04:32:51.653Z,21.48
2018-07-31T04:33:51.907Z,21.53
2018-07-31T04:34:51.893Z,21.56
2018-07-31T04:35:52.011Z,21.53
2018-07-31T04:36:51.881Z,21.53
2018-07-31T04:37:51.605Z,21.56
2018-07-31T04:38:51.607Z,21.6
2018-07-31T04:39:51.592Z,21.57
2018-07-31T04:40:51.849Z,21.54
2018-07-31T04:41:51.567Z,21.56
2018-07-31T04:42:51.578Z,21.61
2018-07-31T04:43:51.288Z,21.5
2018-07-31T04:44:51.541Z,21.6
2018-07-31T04:45:51.269Z,21.6
2018-07-31T04:46:51.525Z,21.61
2018-07-31T04:47:51.518Z,21.5
2018-07-31T04:48:51.243Z,21.59
2018-07-31T04:49:51.497Z,21.59
2018-07-31T04:50:51.767Z,21.59
2018-07-31T04:51:51.496Z,21.53
2018-07-31T04:52:51.476Z,21.6
2018-07-31T04:53:51.465Z,21.53
2018-07-31T04:54:51.458Z,21.64
2018-07-31T04:55:51.704Z,21.53
2018-07-31T04:56:51.900Z,21.5
2018-07-31T04:57:51.434Z,21.57
2018-07-31T04:58:51.681Z,21.59
2018-07-31T04:59:51.154Z,21.56
2018-07-31T05:00:51.663Z,21.64
2018-07-31T05:01:51.128Z,21.57
2018-07-31T05:02:51.119Z,21.63
2018-07-31T05:03:51.373Z,21.64
2018-07-31T05:04:51.102Z,21.6
2018-07-31T05:05:51.360Z,21.63
2018-07-31T05:06:51.607Z,21.66
2018-07-31T05:07:51.598Z,21.66
2018-07-31T05:08:51.335Z,21.71
2018-07-31T05:09:51.596Z,21.81
2018-07-31T05:10:51.054Z,21.82
2018-07-31T05:11:51.304Z,21.79
2018-07-31T05:12:51.031Z,21.74
2018-07-31T05:13:51.284Z,21.74
2018-07-31T05:14:51.285Z,21.91
2018-07-31T05:15:51.543Z,21.81
2018-07-31T05:16:51.258Z,21.85
2018-07-31T05:17:51.250Z,21.88
2018-07-31T05:18:51.247Z,21.88
2018-07-31T05:19:51.500Z,22.01
2018-07-31T05:20:51.223Z,22.02
2018-07-31T05:21:51.211Z,22.02
2018-07-31T05:22:51.474Z,22.06
2018-07-31T05:23:50.941Z,22.09
2018-07-31T05:24:51.188Z,22.23
2018-07-31T05:25:51.180Z,22.16
2018-07-31T05:26:51.174Z,22.16
2018-07-31T05:27:51.431Z,22.28
2018-07-31T05:28:51.156Z,22.31
2018-07-31T05:29:51.151Z,22.28
2018-07-31T05:30:51.138Z,22.28
2018-07-31T05:31:50.872Z,22.32
2018-07-31T05:32:51.377Z,22.34
2018-07-31T05:33:50.852Z,22.28
2018-07-31T05:34:50.839Z,22.34
2018-07-31T05:35:50.836Z,22.34
2018-07-31T05:36:51.349Z,22.46
2018-07-31T05:37:51.079Z,22.39
2018-07-31T05:38:51.333Z,22.46
2018-07-31T05:39:51.320Z,22.43
2018-07-31T05:40:51.057Z,22.49
2018-07-31T05:41:51.049Z,22.49
2018-07-31T05:42:51.030Z,22.5
2018-07-31T05:43:50.762Z,22.57
2018-07-31T05:44:51.281Z,22.56
2018-07-31T05:45:51.012Z,22.67
2018-07-31T05:46:51.007Z,22.54
2018-07-31T05:47:51.255Z,22.62
2018-07-31T05:48:50.717Z,22.62
2018-07-31T05:49:50.722Z,22.71
2018-07-31T05:50:50.702Z,22.65
2018-07-31T05:51:51.056Z,22.89
2018-07-31T05:52:50.691Z,22.72
2018-07-31T05:53:50.961Z,22.78
2018-07-31T05:54:50.668Z,22.82
2018-07-31T05:55:50.708Z,22.83
2018-07-31T05:56:50.926Z,22.87
2018-07-31T05:57:50.648Z,22.8
2018-07-31T05:58:51.162Z,22.84
2018-07-31T05:59:50.890Z,22.87
2018-07-31T06:00:50.877Z,22.87
2018-07-31T06:01:50.877Z,22.86
2018-07-31T06:02:50.598Z,22.82
2018-07-31T06:03:51.120Z,22.83
2018-07-31T06:04:50.853Z,22.92
2018-07-31T06:05:50.842Z,22.92
2018-07-31T06:06:50.835Z,22.97
2018-07-31T06:07:50.863Z,22.96
2018-07-31T06:08:51.081Z,23.01
2018-07-31T06:09:50.821Z,23.05
2018-07-31T06:10:50.797Z,23.08
2018-07-31T06:11:50.810Z,23.05
2018-07-31T06:12:51.062Z,23.02
2018-07-31T06:13:50.784Z,23.12
2018-07-31T06:14:51.032Z,23.08
2018-07-31T06:15:51.024Z,23.17
2018-07-31T06:16:50.748Z,23.15
2018-07-31T06:17:50.739Z,23.2
2018-07-31T06:18:50.733Z,23.17
2018-07-31T06:19:51.205Z,23.24
2018-07-31T06:20:50.722Z,23.26
2018-07-31T06:21:50.722Z,23.31
2018-07-31T06:22:50.715Z,23.34
2018-07-31T06:23:50.967Z,23.32
2018-07-31T06:24:50.963Z,23.39
2018-07-31T06:25:50.686Z,23.46
2018-07-31T06:26:50.947Z,23.45
2018-07-31T06:27:50.668Z,23.4
2018-07-31T06:28:50.389Z,23.42
2018-07-31T06:29:50.921Z,23.53
2018-07-31T06:30:50.646Z,23.49
2018-07-31T06:31:50.919Z,23.58
2018-07-31T06:32:50.391Z,23.6
2018-07-31T06:33:50.886Z,23.62
2018-07-31T06:34:50.613Z,23.62
2018-07-31T06:35:50.657Z,23.71
2018-07-31T06:36:50.595Z,23.77
2018-07-31T06:37:50.854Z,23.77
2018-07-31T06:38:50.571Z,23.76
2018-07-31T06:39:50.588Z,23.89
2018-07-31T06:40:50.823Z,23.95
2018-07-31T06:41:50.556Z,23.92
2018-07-31T06:42:50.804Z,24.05
2018-07-31T06:43:50.838Z,24.05
2018-07-31T06:44:50.525Z,24.13
2018-07-31T06:45:50.526Z,24.22
2018-07-31T06:46:50.513Z,24.27
2018-07-31T06:47:50.596Z,24.34
2018-07-31T06:48:50.768Z,24.37
2018-07-31T06:49:50.752Z,24.44
2018-07-31T06:50:50.483Z,24.47
2018-07-31T06:51:50.476Z,24.45
2018-07-31T06:52:50.213Z,24.57
2018-07-31T06:53:50.199Z,24.67
2018-07-31T06:54:50.453Z,24.64
2018-07-31T06:55:50.451Z,24.79
2018-07-31T06:56:50.987Z,24.75
2018-07-31T06:57:50.437Z,24.91
2018-07-31T06:58:50.694Z,24.97
2018-07-31T06:59:50.421Z,25.07
2018-07-31T07:00:50.413Z,25.09
2018-07-31T07:01:50.679Z,25.22
2018-07-31T07:02:50.401Z,25.35
2018-07-31T07:03:50.662Z,25.44
2018-07-31T07:04:50.662Z,25.52
2018-07-31T07:05:50.117Z,25.64
2018-07-31T07:06:50.639Z,25.71
2018-07-31T07:07:50.370Z,25.83
2018-07-31T07:08:50.357Z,25.83
2018-07-31T07:09:50.626Z,25.99
2018-07-31T07:10:50.662Z,25.94
2018-07-31T07:11:50.340Z,25.98
2018-07-31T07:12:50.606Z,26.09
2018-07-31T07:13:50.066Z,26.08
2018-07-31T07:14:50.325Z,26.09
2018-07-31T07:15:50.325Z,26.17
2018-07-31T07:16:50.316Z,26.15
2018-07-31T07:17:50.313Z,26.27
2018-07-31T07:18:50.303Z,26.18
2018-07-31T07:19:50.031Z,26.32
2018-07-31T07:20:50.558Z,26.35
2018-07-31T07:21:50.283Z,26.27
2018-07-31T07:22:50.280Z,26.32
2018-07-31T07:23:50.271Z,26.39
2018-07-31T07:24:49.996Z,26.37
2018-07-31T07:25:50.269Z,26.44
2018-07-31T07:26:50.522Z,26.4
2018-07-31T07:27:50.617Z,26.4
2018-07-31T07:28:50.244Z,26.46
2018-07-31T07:29:50.243Z,26.54
2018-07-31T07:30:50.241Z,26.57
2018-07-31T07:31:49.968Z,26.59
2018-07-31T07:32:50.484Z,26.55
2018-07-31T07:33:50.764Z,26.68
2018-07-31T07:34:50.207Z,26.8
2018-07-31T07:35:49.940Z,26.72
2018-07-31T07:36:50.502Z,26.86
2018-07-31T07:37:50.199Z,27.2
2018-07-31T07:38:50.195Z,27.54
2018-07-31T07:39:50.452Z,27.64
2018-07-31T07:40:50.185Z,27.69
2018-07-31T07:41:50.442Z,27.85
2018-07-31T07:42:50.175Z,28.23
2018-07-31T07:43:50.166Z,28.36
2018-07-31T07:44:50.163Z,28.6
2018-07-31T07:45:50.156Z,28.77
2018-07-31T07:46:50.164Z,29.03
2018-07-31T07:47:50.416Z,29.4
2018-07-31T07:48:50.150Z,29.63
2018-07-31T07:49:49.882Z,29.92
2018-07-31T07:50:50.136Z,29.97
2018-07-31T07:51:50.403Z,29.97
2018-07-31T07:52:50.133Z,29.89
2018-07-31T07:53:50.521Z,29.92
2018-07-31T07:54:50.389Z,29.78
2018-07-31T07:55:49.856Z,29.82
2018-07-31T07:56:49.852Z,29.89
2018-07-31T07:57:50.121Z,30.65
2018-07-31T07:58:50.114Z,31.46
2018-07-31T07:59:50.112Z,32.29
2018-07-31T08:00:50.366Z,33.14
2018-07-31T08:01:50.105Z,33.67
2018-07-31T08:02:50.370Z,33.41
2018-07-31T08:03:50.268Z,32.84
2018-07-31T08:04:50.111Z,32.37
2018-07-31T08:05:50.096Z,32.18
2018-07-31T08:06:50.091Z,32.37
2018-07-31T08:07:49.833Z,32.8
2018-07-31T08:08:50.363Z,33.45
2018-07-31T08:09:49.849Z,33.76
2018-07-31T08:10:50.353Z,33.42
2018-07-31T08:11:50.100Z,33.06
2018-07-31T08:12:50.355Z,32.71
2018-07-31T08:13:50.087Z,32.43
2018-07-31T08:14:50.353Z,32.49
2018-07-31T08:15:50.088Z,32.7
2018-07-31T08:16:50.097Z,32.58
2018-07-31T08:17:50.080Z,32.33
2018-07-31T08:18:49.820Z,32.22
2018-07-31T08:19:50.562Z,32.02
2018-07-31T08:20:50.348Z,32.05
2018-07-31T08:21:49.815Z,31.73
2018-07-31T08:22:50.083Z,31.53
2018-07-31T08:23:50.089Z,31.73
2018-07-31T08:24:50.076Z,32.54
2018-07-31T08:25:50.338Z,33.1
2018-07-31T08:26:50.351Z,33.58
2018-07-31T08:27:50.514Z,33.43
2018-07-31T08:28:50.343Z,33.13
2018-07-31T08:29:50.075Z,32.59
2018-07-31T08:30:50.072Z,32.18
2018-07-31T08:31:50.073Z,31.85
2018-07-31T08:32:50.064Z,31.7
2018-07-31T08:33:50.367Z,31.43
2018-07-31T08:34:50.061Z,31.53
2018-07-31T08:35:50.331Z,31.3
2018-07-31T08:36:50.327Z,31.58
2018-07-31T08:37:50.325Z,31.75
2018-07-31T08:38:50.058Z,32.21
2018-07-31T08:39:50.053Z,32.64
2018-07-31T08:40:50.065Z,32.67
2018-07-31T08:41:50.049Z,32.37
2018-07-31T08:42:50.310Z,31.96
2018-07-31T08:43:50.312Z,31.82
2018-07-31T08:44:50.043Z,31.68
2018-07-31T08:45:50.040Z,31.54
2018-07-31T08:46:50.314Z,31.23
2018-07-31T08:47:50.044Z,31.15
2018-07-31T08:48:50.042Z,31.11
2018-07-31T08:49:50.300Z,31.13
2018-07-31T08:50:50.297Z,31.08
2018-07-31T08:51:50.043Z,30.99
2018-07-31T08:52:50.298Z,30.89
2018-07-31T08:53:49.766Z,30.78
2018-07-31T08:54:50.022Z,30.64
2018-07-31T08:55:49.819Z,30.56
2018-07-31T08:56:49.819Z,30.53
2018-07-31T08:57:50.015Z,30.54
2018-07-31T08:58:50.278Z,30.5
2018-07-31T08:59:50.025Z,30.52
2018-07-31T09:00:50.268Z,30.54
2018-07-31T09:01:50.267Z,30.62
2018-07-31T09:02:50.485Z,30.62
2018-07-31T09:03:49.739Z,30.61
2018-07-31T09:04:49.999Z,30.69
2018-07-31T09:05:49.996Z,30.75
2018-07-31T09:06:49.723Z,30.87
2018-07-31T09:07:50.256Z,30.76
2018-07-31T09:08:50.057Z,30.86
2018-07-31T09:09:49.976Z,30.93
2018-07-31T09:10:49.994Z,30.9
2018-07-31T09:11:49.971Z,30.93
2018-07-31T09:12:49.968Z,31.02
2018-07-31T09:13:50.237Z,30.94
2018-07-31T09:14:50.226Z,30.98
2018-07-31T09:15:49.960Z,30.98
2018-07-31T09:16:49.960Z,31.17
2018-07-31T09:17:49.973Z,31.3
2018-07-31T09:18:49.959Z,31.45
2018-07-31T09:19:50.220Z,31.46
2018-07-31T09:20:50.242Z,31.43
2018-07-31T09:21:49.947Z,31.48
2018-07-31T09:22:50.219Z,31.4
2018-07-31T09:23:49.956Z,31.54
2018-07-31T09:24:50.340Z,31.93
2018-07-31T09:25:50.209Z,32.36
2018-07-31T09:26:50.206Z,32.85
2018-07-31T09:27:49.673Z,33.27
2018-07-31T09:28:50.197Z,33.57
2018-07-31T09:29:49.931Z,33.67
2018-07-31T09:30:50.158Z,33.61
2018-07-31T09:31:49.934Z,33.37
2018-07-31T09:32:50.195Z,33.07
2018-07-31T09:33:50.183Z,32.98
2018-07-31T09:34:49.945Z,32.74
2018-07-31T09:35:49.916Z,32.58
2018-07-31T09:36:49.928Z,32.49
2018-07-31T09:37:50.179Z,32.43
2018-07-31T09:38:50.221Z,32.27
2018-07-31T09:39:49.650Z,32.17
2018-07-31T09:40:50.174Z,31.96
2018-07-31T09:41:50.174Z,31.98
2018-07-31T09:42:50.066Z,31.8
2018-07-31T09:43:49.910Z,31.8
2018-07-31T09:44:50.173Z,31.75
2018-07-31T09:45:50.165Z,31.68
2018-07-31T09:46:49.641Z,31.65
2018-07-31T09:47:50.161Z,31.55
2018-07-31T09:48:49.635Z,31.54
2018-07-31T09:49:49.635Z,31.57
2018-07-31T09:50:49.899Z,31.49
2018-07-31T09:51:49.624Z,31.46
2018-07-31T09:52:49.889Z,31.55
2018-07-31T09:53:49.887Z,31.58
2018-07-31T09:54:49.617Z,31.55
2018-07-31T09:55:50.145Z,31.64
2018-07-31T09:56:50.143Z,31.58
2018-07-31T09:57:49.616Z,31.54
2018-07-31T09:58:49.882Z,31.6
2018-07-31T09:59:50.139Z,31.54
2018-07-31T10:00:49.869Z,31.49
2018-07-31T10:01:49.864Z,31.39
2018-07-31T10:02:50.126Z,31.38
2018-07-31T10:03:49.598Z,31.35
2018-07-31T10:04:49.861Z,31.3
2018-07-31T10:05:49.850Z,31.23
2018-07-31T10:06:49.593Z,31.28
2018-07-31T10:07:50.120Z,31.24
2018-07-31T10:08:49.863Z,31.3
2018-07-31T10:09:49.844Z,31.28
2018-07-31T10:10:49.850Z,31.42
2018-07-31T10:11:49.614Z,31.42
2018-07-31T10:12:50.108Z,31.54
2018-07-31T10:13:50.108Z,31.55
2018-07-31T10:14:49.841Z,31.68
2018-07-31T10:15:49.834Z,31.8
2018-07-31T10:16:49.832Z,31.93
2018-07-31T10:17:50.073Z,31.91
2018-07-31T10:18:49.562Z,32.14
2018-07-31T10:19:49.960Z,32.36
2018-07-31T10:20:50.084Z,32.62
2018-07-31T10:21:49.816Z,32.62
2018-07-31T10:22:49.817Z,32.39
2018-07-31T10:23:49.817Z,32.25
2018-07-31T10:24:49.818Z,32.27
2018-07-31T10:25:50.079Z,32.2
2018-07-31T10:26:50.078Z,32
2018-07-31T10:27:49.815Z,32.02
2018-07-31T10:28:49.805Z,31.99
2018-07-31T10:29:50.069Z,31.91
2018-07-31T10:30:49.652Z,31.93
2018-07-31T10:31:50.066Z,32
2018-07-31T10:32:50.067Z,32.14
2018-07-31T10:33:50.066Z,32.7
2018-07-31T10:34:50.058Z,33.06
2018-07-31T10:35:49.796Z,33.03
2018-07-31T10:36:50.057Z,33.08
2018-07-31T10:37:50.267Z,33.23
2018-07-31T10:38:49.527Z,33.64
2018-07-31T10:39:50.060Z,34.23
2018-07-31T10:40:49.532Z,34.53
2018-07-31T10:41:49.796Z,34.88
2018-07-31T10:42:49.798Z,35.01
2018-07-31T10:43:50.323Z,34.96
2018-07-31T10:44:49.800Z,34.35
2018-07-31T10:45:49.802Z,34.14
2018-07-31T10:46:50.072Z,33.97
2018-07-31T10:47:50.068Z,33.76
2018-07-31T10:48:49.861Z,33.61
2018-07-31T10:49:49.806Z,33.52
2018-07-31T10:50:49.812Z,33.49
2018-07-31T10:51:50.074Z,33.42
2018-07-31T10:52:50.081Z,33.55
2018-07-31T10:53:50.078Z,33.95
2018-07-31T10:54:49.820Z,34.2
2018-07-31T10:55:49.818Z,34.44
2018-07-31T10:56:49.555Z,34.74
2018-07-31T10:57:49.818Z,35.17
2018-07-31T10:58:49.562Z,35.47
2018-07-31T10:59:49.653Z,35.55
2018-07-31T11:00:49.826Z,36.12
2018-07-31T11:01:50.091Z,36.64
2018-07-31T11:02:49.971Z,36.92
2018-07-31T11:03:49.893Z,37.04
2018-07-31T11:04:49.836Z,36.94
2018-07-31T11:05:49.837Z,36.97
2018-07-31T11:06:50.101Z,36.8
2018-07-31T11:07:49.587Z,36.72
2018-07-31T11:08:49.854Z,36.67
2018-07-31T11:09:49.867Z,36.76
2018-07-31T11:10:50.130Z,36.99
2018-07-31T11:11:49.863Z,37.13
2018-07-31T11:12:49.877Z,37.38
2018-07-31T11:13:50.140Z,37.02
2018-07-31T11:14:49.878Z,37.41
2018-07-31T11:15:49.883Z,37.66
2018-07-31T11:16:49.887Z,37.78
2018-07-31T11:17:49.636Z,37.88
2018-07-31T11:18:49.904Z,38.18
2018-07-31T11:19:49.901Z,38.63
2018-07-31T11:20:49.932Z,38.57
2018-07-31T11:21:49.654Z,38.76
2018-07-31T11:22:49.663Z,38.68
2018-07-31T11:23:49.665Z,38.96
2018-07-31T11:24:50.210Z,38.89
2018-07-31T11:25:49.947Z,38.85
2018-07-31T11:26:50.210Z,38.46
2018-07-31T11:27:49.702Z,38.27
2018-07-31T11:28:50.229Z,38.22
2018-07-31T11:29:49.707Z,38.15
2018-07-31T11:30:50.248Z,38.01
2018-07-31T11:31:49.985Z,37.89
2018-07-31T11:32:50.004Z,37.86
2018-07-31T11:33:49.993Z,37.98
2018-07-31T11:34:50.009Z,37.98
2018-07-31T11:35:50.019Z,37.78
2018-07-31T11:36:50.281Z,37.76
2018-07-31T11:37:49.761Z,37.58
2018-07-31T11:38:49.767Z,37.14
2018-07-31T11:39:50.039Z,37.26
2018-07-31T11:40:50.047Z,37.56
2018-07-31T11:41:50.328Z,37.89
2018-07-31T11:42:50.328Z,37.86
2018-07-31T11:43:50.383Z,38.15
2018-07-31T11:44:50.073Z,38.45
2018-07-31T11:45:50.347Z,38.12
2018-07-31T11:46:50.086Z,38.15
2018-07-31T11:47:50.095Z,38.27
2018-07-31T11:48:50.120Z,38.36
2018-07-31T11:49:50.377Z,38.34
2018-07-31T11:50:50.388Z,38.12
2018-07-31T11:51:50.128Z,38.23
2018-07-31T11:52:50.126Z,38.66
2018-07-31T11:53:50.401Z,38.61
2018-07-31T11:54:50.143Z,38.58
2018-07-31T11:55:49.885Z,38.86
2018-07-31T11:56:50.155Z,39.09
2018-07-31T11:57:49.901Z,38.36
2018-07-31T11:58:50.168Z,38.32
2018-07-31T11:59:50.488Z,38.24
2018-07-31T12:00:50.181Z,38.08
2018-07-31T12:01:50.286Z,38.18
2018-07-31T12:02:50.462Z,38.15
2018-07-31T12:03:50.207Z,38.01
2018-07-31T12:04:50.519Z,38.14
2018-07-31T12:05:50.515Z,38.39
2018-07-31T12:06:50.485Z,38.51
2018-07-31T12:07:49.966Z,38.64
2018-07-31T12:08:50.274Z,38.79
2018-07-31T12:09:50.607Z,39.08
2018-07-31T12:10:50.524Z,39.28
2018-07-31T12:11:50.536Z,39.73
2018-07-31T12:12:50.277Z,39.74
2018-07-31T12:13:50.321Z,39.52
2018-07-31T12:14:50.022Z,39.67
2018-07-31T12:15:50.288Z,39.37
2018-07-31T12:16:50.296Z,38.99
2018-07-31T12:17:50.589Z,38.53
2018-07-31T12:18:50.047Z,38.39
2018-07-31T12:19:50.320Z,37.88
2018-07-31T12:20:50.660Z,37.35
2018-07-31T12:21:50.066Z,36.73
2018-07-31T12:22:50.347Z,36.31
2018-07-31T12:23:50.771Z,36.31
2018-07-31T12:24:50.388Z,36.04
2018-07-31T12:25:50.616Z,35.69
2018-07-31T12:26:50.386Z,35.6
2018-07-31T12:27:50.629Z,35.62
2018-07-31T12:28:50.630Z,35.57
2018-07-31T12:29:50.112Z,35.26
2018-07-31T12:30:50.376Z,35.67
2018-07-31T12:31:50.384Z,35.69
2018-07-31T12:32:50.492Z,35.91
2018-07-31T12:33:50.131Z,36.24
2018-07-31T12:34:50.660Z,36.86
2018-07-31T12:35:50.668Z,37.23
2018-07-31T12:36:50.674Z,37.64
2018-07-31T12:37:50.150Z,37.78
2018-07-31T12:38:50.678Z,37.86
2018-07-31T12:39:50.680Z,37.99
2018-07-31T12:40:50.159Z,38.12
2018-07-31T12:41:50.431Z,38.36
2018-07-31T12:42:50.693Z,38.26
2018-07-31T12:43:50.175Z,37.89
2018-07-31T12:44:50.703Z,37.47
2018-07-31T12:45:50.452Z,37.46
2018-07-31T12:46:50.722Z,37.66
2018-07-31T12:47:50.193Z,37.04
2018-07-31T12:48:50.769Z,36.57
2018-07-31T12:49:50.468Z,36.46
2018-07-31T12:50:50.200Z,36.03
2018-07-31T12:51:50.470Z,35.79
2018-07-31T12:52:50.483Z,35.63
2018-07-31T12:53:50.218Z,35.66
2018-07-31T12:54:50.755Z,35.26